KCOS/COS METAR and TAF weather

Enter ICAO airport designator
Station Type Date Time Source
KCOS METAR 2021/10/22 19:54 UTC NOAA

KCOS 221954Z 13005KT 10SM SCT120 BKN200 23/M10 A3006 RMK AO2 SLP127 T02281100


Station Type Date Time Source
KCOS Decoded METAR 2021/10/22 19:54 UTC NOAA

COLORADO SPRINGS MUNI, CO, United States (KCOS) 38-49N 104-43W 1856M
Oct 22, 2021 - 03:54 PM EDT / 2021.10.22 1954 UTC
Wind: from the SE (130 degrees) at 6 MPH (5 KT):0
Visibility: 10 mile(s):0
Sky conditions: mostly cloudy
Temperature: 73.0 F (22.8 C)
Dew Point: 14.0 F (-10.0 C)
Relative Humidity: 10%
Pressure (altimeter): 30.06 in. Hg (1017 hPa)
ob: KCOS 221954Z 13005KT 10SM SCT120 BKN200 23/M10 A3006 RMK AO2 SLP127 T02281100
cycle: 20

Station Type Date Time Source
KCOS TAF 2021/10/22 18:24 UTC NOAA

TAF KCOS 221723Z 2218/2318 15006KT P6SM SCT150
FM222100 16011KT P6SM SCT200
FM230100 13007KT P6SM SCT200
FM230700 01008KT P6SM FEW150 SCT250

Example: see airport list